Rainham, United Kingdom
Current Conditions -  °F | °C
As of 10:50 AM on Tuesday 21 Oct 2014 (Local Time) from EGLC Reporting Station
Few Clouds Few Clouds  
Wind Chill: 14°   Ceiling: Unl
Heat Index: 14°   Visibility: 6mi
Dew Point:   Wind: 25mph
Humidity: 63%   Direction: 280°W
Pressure: 29.62"   Gusts: 37mph
Location:  51.53°N, 0.19°E
Report Text: EGLC 210950Z 28022G32KT 9999 FEW030 14/07 Q1003
Loading
Personal Weather Stations






























Interactive Weather Map
Tropical Storm Tracking
New forecast layout! Learn more

10-Day Weather Forecast

Advertisements
Track Severe Weather on mobile